createdAt,value
2022-12-09T00:00:58.448Z,0.00
2022-12-09T00:01:58.654Z,0.00
2022-12-09T00:02:58.774Z,0.00
2022-12-09T00:03:58.935Z,0.00
2022-12-09T00:04:58.712Z,0.00
2022-12-09T00:05:58.640Z,0.00
2022-12-09T00:06:58.404Z,0.00
2022-12-09T00:07:58.488Z,0.00
2022-12-09T00:08:58.392Z,0.00
2022-12-09T00:09:58.468Z,0.00
2022-12-09T00:10:58.446Z,0.00
2022-12-09T00:11:58.558Z,0.00
2022-12-09T00:12:58.534Z,0.00
2022-12-09T00:13:58.458Z,0.00
2022-12-09T00:14:58.293Z,0.00
2022-12-09T00:15:58.404Z,0.00
2022-12-09T00:16:58.370Z,0.00
2022-12-09T00:17:58.282Z,0.00
2022-12-09T00:18:58.456Z,0.00
2022-12-09T00:19:58.266Z,0.00
2022-12-09T00:20:58.223Z,0.00
2022-12-09T00:21:58.470Z,0.00
2022-12-09T00:22:58.386Z,0.00
2022-12-09T00:23:58.220Z,0.00
2022-12-09T00:24:58.347Z,0.00
2022-12-09T00:25:58.174Z,0.00
2022-12-09T00:26:58.219Z,0.00
2022-12-09T00:27:58.250Z,0.00
2022-12-09T00:28:58.214Z,0.00
2022-12-09T00:29:58.129Z,0.00
2022-12-09T00:30:58.425Z,0.00
2022-12-09T00:31:58.357Z,0.00
2022-12-09T00:32:58.315Z,0.00
2022-12-09T00:33:58.082Z,0.00
2022-12-09T00:34:58.074Z,0.00
2022-12-09T00:35:58.080Z,0.00
2022-12-09T00:36:58.052Z,0.00
2022-12-09T00:37:58.171Z,0.00
2022-12-09T00:38:58.081Z,0.00
2022-12-09T00:39:58.017Z,0.00
2022-12-09T00:40:58.002Z,0.00
2022-12-09T00:41:58.015Z,0.00
2022-12-09T00:42:57.999Z,0.00
2022-12-09T00:43:57.994Z,0.00
2022-12-09T00:44:58.214Z,0.00
2022-12-09T00:45:58.223Z,0.00
2022-12-09T00:46:58.073Z,0.00
2022-12-09T00:47:58.021Z,0.00
2022-12-09T00:48:58.144Z,0.00
2022-12-09T00:49:57.913Z,0.00
2022-12-09T00:50:57.895Z,0.00
2022-12-09T00:51:58.061Z,0.00
2022-12-09T00:52:57.876Z,0.00
2022-12-09T00:53:58.201Z,0.00
2022-12-09T00:54:57.934Z,0.00
2022-12-09T00:55:57.842Z,0.00
2022-12-09T00:56:57.843Z,0.00
2022-12-09T00:57:57.820Z,0.00
2022-12-09T00:58:58.042Z,0.00
2022-12-09T00:59:57.823Z,0.00
2022-12-09T01:00:57.927Z,0.00
2022-12-09T01:01:57.905Z,0.00
2022-12-09T01:02:58.066Z,0.00
2022-12-09T01:03:58.195Z,0.00
2022-12-09T01:04:57.872Z,0.00
2022-12-09T01:05:57.984Z,0.00
2022-12-09T01:06:57.711Z,0.00
2022-12-09T01:07:57.935Z,0.00
2022-12-09T01:08:58.028Z,0.00
2022-12-09T01:09:57.707Z,0.00
2022-12-09T01:10:57.848Z,0.00
2022-12-09T01:11:57.728Z,0.00
2022-12-09T01:12:57.670Z,0.00
2022-12-09T01:13:57.921Z,0.00
2022-12-09T01:14:57.767Z,0.00
2022-12-09T01:15:57.900Z,0.00
2022-12-09T01:16:57.770Z,0.00
2022-12-09T01:17:57.699Z,0.00
2022-12-09T01:18:57.597Z,0.00
2022-12-09T01:19:57.574Z,0.00
2022-12-09T01:20:57.721Z,0.00
2022-12-09T01:21:57.654Z,0.00
2022-12-09T01:22:57.697Z,0.00
2022-12-09T01:23:57.663Z,0.00
2022-12-09T01:24:57.514Z,0.00
2022-12-09T01:25:57.546Z,0.00
2022-12-09T01:26:57.850Z,0.00
2022-12-09T01:27:57.475Z,0.00
2022-12-09T01:28:57.748Z,0.00
2022-12-09T01:29:57.659Z,0.00
2022-12-09T01:30:57.780Z,0.00
2022-12-09T01:31:57.593Z,0.00
2022-12-09T01:32:57.560Z,0.00
2022-12-09T01:33:57.573Z,0.00
2022-12-09T01:34:57.537Z,0.00
2022-12-09T01:35:57.391Z,0.00
2022-12-09T01:36:57.417Z,0.00
2022-12-09T01:37:57.392Z,0.00
2022-12-09T01:38:57.652Z,0.00
2022-12-09T01:39:57.351Z,0.00
2022-12-09T01:40:57.340Z,0.00
2022-12-09T01:41:57.701Z,0.00
2022-12-09T01:42:57.605Z,0.00
2022-12-09T01:43:57.303Z,0.00
2022-12-09T01:44:57.306Z,0.00
2022-12-09T01:45:57.612Z,0.00
2022-12-09T01:46:57.521Z,0.00
2022-12-09T01:47:57.342Z,0.00
2022-12-09T01:48:57.404Z,0.00
2022-12-09T01:50:00.307Z,0.00
2022-12-09T01:50:57.248Z,0.00
2022-12-09T01:51:57.529Z,0.00
2022-12-09T01:52:57.367Z,0.00
2022-12-09T01:53:57.235Z,0.00
2022-12-09T01:54:57.240Z,0.00
2022-12-09T01:55:57.490Z,0.00
2022-12-09T01:56:57.422Z,0.00
2022-12-09T01:57:57.142Z,0.00
2022-12-09T01:58:57.200Z,0.00
2022-12-09T01:59:57.130Z,0.00
2022-12-09T02:00:57.146Z,0.00
2022-12-09T02:01:57.370Z,0.00
2022-12-09T02:02:57.459Z,0.00
2022-12-09T02:03:57.544Z,0.00
2022-12-09T02:04:57.257Z,0.00
2022-12-09T02:05:57.307Z,0.00
2022-12-09T02:06:57.452Z,0.00
2022-12-09T02:07:57.258Z,0.00
2022-12-09T02:08:57.199Z,0.00
2022-12-09T02:09:57.141Z,0.00
2022-12-09T02:10:57.318Z,0.00
2022-12-09T02:11:56.986Z,0.00
2022-12-09T02:12:57.034Z,0.00
2022-12-09T02:13:56.972Z,0.00
2022-12-09T02:14:57.261Z,0.00
2022-12-09T02:15:57.171Z,0.00
2022-12-09T02:16:57.229Z,0.00
2022-12-09T02:17:56.918Z,0.00
2022-12-09T02:18:57.172Z,0.00
2022-12-09T02:19:56.919Z,0.00
2022-12-09T02:20:57.210Z,0.00
2022-12-09T02:21:56.994Z,0.00
2022-12-09T02:22:56.954Z,0.00
2022-12-09T02:23:57.127Z,0.00
2022-12-09T02:24:56.887Z,0.00
2022-12-09T02:25:57.133Z,0.00
2022-12-09T02:26:56.958Z,0.00
2022-12-09T02:27:57.071Z,0.00
2022-12-09T02:28:57.003Z,0.00
2022-12-09T02:29:56.785Z,0.00
2022-12-09T02:30:57.204Z,0.00
2022-12-09T02:31:57.148Z,0.00
2022-12-09T02:32:56.964Z,0.00
2022-12-09T02:33:56.954Z,0.00
2022-12-09T02:34:57.105Z,0.00
2022-12-09T02:35:56.748Z,0.00
2022-12-09T02:36:56.722Z,0.00
2022-12-09T02:37:57.082Z,0.00
2022-12-09T02:38:56.722Z,0.00
2022-12-09T02:39:56.695Z,0.00
2022-12-09T02:40:56.691Z,0.00
2022-12-09T02:41:56.673Z,0.00
2022-12-09T02:42:56.644Z,0.00
2022-12-09T02:43:56.641Z,0.00
2022-12-09T02:44:56.962Z,0.00
2022-12-09T02:45:56.763Z,0.00
2022-12-09T02:46:56.911Z,0.00
2022-12-09T02:47:56.793Z,0.00
2022-12-09T02:48:56.678Z,0.00
2022-12-09T02:49:56.806Z,0.00
2022-12-09T02:50:56.582Z,0.00
2022-12-09T02:51:56.611Z,0.00
2022-12-09T02:52:56.851Z,0.00
2022-12-09T02:53:56.747Z,0.00
2022-12-09T02:54:56.675Z,0.00
2022-12-09T02:55:56.509Z,0.00
2022-12-09T02:56:56.590Z,0.00
2022-12-09T02:57:56.883Z,0.00
2022-12-09T02:58:56.506Z,0.00
2022-12-09T02:59:56.828Z,0.00
2022-12-09T03:00:56.638Z,0.00
2022-12-09T03:01:56.659Z,0.00
2022-12-09T03:02:56.888Z,0.00
2022-12-09T03:03:56.577Z,0.00
2022-12-09T03:04:56.404Z,0.00
2022-12-09T03:05:56.421Z,0.00
2022-12-09T03:06:56.625Z,0.00
2022-12-09T03:07:56.497Z,0.00
2022-12-09T03:08:56.704Z,0.00
2022-12-09T03:09:56.671Z,0.00
2022-12-09T03:10:56.648Z,0.00
2022-12-09T03:11:56.329Z,0.00
2022-12-09T03:12:56.403Z,0.00
2022-12-09T03:13:56.507Z,0.00
2022-12-09T03:14:56.292Z,0.00
2022-12-09T03:15:56.409Z,0.00
2022-12-09T03:16:56.408Z,0.00
2022-12-09T03:17:56.361Z,0.00
2022-12-09T03:18:56.273Z,0.00
2022-12-09T03:19:56.612Z,0.00
2022-12-09T03:20:56.226Z,0.00
2022-12-09T03:21:56.616Z,0.00
2022-12-09T03:22:56.536Z,0.00
2022-12-09T03:23:56.185Z,0.00
2022-12-09T03:24:56.218Z,0.00
2022-12-09T03:25:56.206Z,0.00
2022-12-09T03:26:56.582Z,0.00
2022-12-09T03:27:56.144Z,0.00
2022-12-09T03:28:56.136Z,0.00
2022-12-09T03:29:56.168Z,0.00
2022-12-09T03:30:56.892Z,0.00
2022-12-09T03:31:56.295Z,0.00
2022-12-09T03:32:56.218Z,0.00
2022-12-09T03:33:56.364Z,0.00
2022-12-09T03:34:56.347Z,0.00
2022-12-09T03:35:56.109Z,0.00
2022-12-09T03:36:56.043Z,0.00
2022-12-09T03:37:56.039Z,0.00
2022-12-09T03:38:56.251Z,0.00
2022-12-09T03:39:56.023Z,0.00
2022-12-09T03:40:56.016Z,0.00
2022-12-09T03:41:56.291Z,0.00
2022-12-09T03:42:55.999Z,0.00
2022-12-09T03:43:56.113Z,0.00
2022-12-09T03:44:56.084Z,0.00
2022-12-09T03:45:56.377Z,0.00
2022-12-09T03:46:56.385Z,0.00
2022-12-09T03:47:56.383Z,0.00
2022-12-09T03:48:55.914Z,0.00
2022-12-09T03:49:55.966Z,0.00
2022-12-09T03:50:56.014Z,0.00
2022-12-09T03:51:55.872Z,0.00
2022-12-09T03:52:55.885Z,0.00
2022-12-09T03:53:55.867Z,0.00
2022-12-09T03:54:56.067Z,0.00
2022-12-09T03:55:56.175Z,0.00
2022-12-09T03:56:56.237Z,0.00
2022-12-09T03:57:55.951Z,0.00
2022-12-09T03:58:56.035Z,0.00
2022-12-09T03:59:55.971Z,0.00
2022-12-09T04:00:55.976Z,0.00
2022-12-09T04:01:55.983Z,0.00
2022-12-09T04:02:56.402Z,0.00
2022-12-09T04:03:56.293Z,0.00
2022-12-09T04:04:56.216Z,0.00
2022-12-09T04:05:55.906Z,0.00
2022-12-09T04:06:55.891Z,0.00
2022-12-09T04:07:55.728Z,0.00
2022-12-09T04:09:00.701Z,0.00
2022-12-09T04:09:56.679Z,0.00
2022-12-09T04:10:55.803Z,0.00
2022-12-09T04:11:55.672Z,0.00
2022-12-09T04:12:55.766Z,0.00
2022-12-09T04:13:55.872Z,0.00
2022-12-09T04:14:55.624Z,0.00
2022-12-09T04:15:55.936Z,0.00
2022-12-09T04:16:55.650Z,0.00
2022-12-09T04:17:55.760Z,0.00
2022-12-09T04:18:55.910Z,0.00
2022-12-09T04:19:55.663Z,0.00
2022-12-09T04:20:55.592Z,0.00
2022-12-09T04:21:55.572Z,0.00
2022-12-09T04:22:55.616Z,0.00
2022-12-09T04:23:55.590Z,0.00
2022-12-09T04:24:55.581Z,0.00
2022-12-09T04:25:55.498Z,0.00
2022-12-09T04:26:55.874Z,0.00
2022-12-09T04:27:55.797Z,0.00
2022-12-09T04:28:55.583Z,0.00
2022-12-09T04:29:55.453Z,0.00
2022-12-09T04:30:55.481Z,0.00
2022-12-09T04:31:55.659Z,0.00
2022-12-09T04:32:55.494Z,0.00
2022-12-09T04:33:55.573Z,0.00
2022-12-09T04:34:55.541Z,0.00
2022-12-09T04:35:55.727Z,0.00
2022-12-09T04:36:55.594Z,0.00
2022-12-09T04:37:55.389Z,0.00
2022-12-09T04:38:55.443Z,0.00
2022-12-09T04:39:55.402Z,0.00
2022-12-09T04:40:55.519Z,0.00
2022-12-09T04:41:55.802Z,0.00
2022-12-09T04:42:55.351Z,0.00
2022-12-09T04:43:55.399Z,0.00
2022-12-09T04:44:55.306Z,0.00
2022-12-09T04:45:55.328Z,0.00
2022-12-09T04:46:55.537Z,0.00
2022-12-09T04:47:55.692Z,0.00
2022-12-09T04:48:55.645Z,0.00
2022-12-09T04:49:55.249Z,0.00
2022-12-09T04:50:55.599Z,0.00
2022-12-09T04:51:55.207Z,0.00
2022-12-09T04:52:55.345Z,0.00
2022-12-09T04:53:55.181Z,0.00
2022-12-09T04:54:55.179Z,0.00
2022-12-09T04:55:55.179Z,0.00
2022-12-09T04:56:55.169Z,0.00
2022-12-09T04:57:55.448Z,0.00
2022-12-09T04:58:55.154Z,0.00
2022-12-09T04:59:55.127Z,0.00
2022-12-09T05:00:55.363Z,0.00
2022-12-09T05:01:55.452Z,0.00
2022-12-09T05:02:55.499Z,0.00
2022-12-09T05:03:55.528Z,0.00
2022-12-09T05:04:55.416Z,0.00
2022-12-09T05:05:55.252Z,0.00
2022-12-09T05:06:55.656Z,0.00
2022-12-09T05:07:55.911Z,0.00
2022-12-09T05:08:55.176Z,0.00
2022-12-09T05:09:55.299Z,0.00
2022-12-09T05:10:55.263Z,0.00
2022-12-09T05:11:56.412Z,0.00
2022-12-09T05:12:55.070Z,0.00
2022-12-09T05:13:55.287Z,0.00
2022-12-09T05:14:55.236Z,0.00
2022-12-09T05:15:55.293Z,0.00
2022-12-09T05:16:55.375Z,0.00
2022-12-09T05:17:55.398Z,0.00
2022-12-09T05:18:55.358Z,0.00
2022-12-09T05:19:55.335Z,0.00
2022-12-09T05:20:55.047Z,0.00
2022-12-09T05:21:55.197Z,0.00
2022-12-09T05:22:55.015Z,0.00
2022-12-09T05:23:55.263Z,0.00
2022-12-09T05:24:54.907Z,0.00
2022-12-09T05:25:54.968Z,0.00
2022-12-09T05:26:54.900Z,0.00
2022-12-09T05:27:55.152Z,0.00
2022-12-09T05:28:54.897Z,0.00
2022-12-09T05:29:54.867Z,0.00
2022-12-09T05:30:54.941Z,0.00
2022-12-09T05:31:54.859Z,0.00
2022-12-09T05:32:55.077Z,0.00
2022-12-09T05:33:54.916Z,0.00
2022-12-09T05:34:54.929Z,0.00
2022-12-09T05:35:54.737Z,0.00
2022-12-09T05:36:54.836Z,0.00
2022-12-09T05:37:54.883Z,0.00
2022-12-09T05:38:54.884Z,0.00
2022-12-09T05:39:54.669Z,0.00
2022-12-09T05:40:54.854Z,0.00
2022-12-09T05:41:54.971Z,0.00
2022-12-09T05:42:55.044Z,0.00
2022-12-09T05:43:54.880Z,0.00
2022-12-09T05:44:54.726Z,0.00
2022-12-09T05:45:55.059Z,0.00
2022-12-09T05:46:54.953Z,0.00
2022-12-09T05:47:55.008Z,0.00
2022-12-09T05:48:54.890Z,0.00
2022-12-09T05:49:54.949Z,0.00
2022-12-09T05:50:54.889Z,0.00
2022-12-09T05:51:54.901Z,0.00
2022-12-09T05:52:54.555Z,0.00
2022-12-09T05:53:54.898Z,0.00
2022-12-09T05:54:54.697Z,0.00
2022-12-09T05:55:54.919Z,0.00
2022-12-09T05:56:54.742Z,0.00
2022-12-09T05:57:54.498Z,0.00
2022-12-09T05:58:54.741Z,0.00
2022-12-09T05:59:54.747Z,0.00
2022-12-09T06:00:54.769Z,0.00
2022-12-09T06:01:54.453Z,0.00
2022-12-09T06:02:55.023Z,0.00
2022-12-09T06:03:54.790Z,0.00
2022-12-09T06:04:54.530Z,0.00
2022-12-09T06:05:54.562Z,0.00
2022-12-09T06:06:54.595Z,0.00
2022-12-09T06:07:54.820Z,0.00
2022-12-09T06:08:54.855Z,0.00
2022-12-09T06:09:54.797Z,0.00
2022-12-09T06:10:54.592Z,0.00
2022-12-09T06:11:54.672Z,0.00
2022-12-09T06:12:54.335Z,0.00
2022-12-09T06:13:54.742Z,0.00
2022-12-09T06:14:54.402Z,0.00
2022-12-09T06:15:54.724Z,0.00
2022-12-09T06:16:54.502Z,0.00
2022-12-09T06:17:54.422Z,0.00
2022-12-09T06:18:54.499Z,0.00
2022-12-09T06:19:54.362Z,0.00
2022-12-09T06:20:54.625Z,0.00
2022-12-09T06:21:54.400Z,0.00
2022-12-09T06:22:54.206Z,0.00
2022-12-09T06:23:54.356Z,0.00
2022-12-09T06:24:57.205Z,0.00
2022-12-09T06:25:54.316Z,0.00
2022-12-09T06:26:54.459Z,0.00
2022-12-09T06:27:54.584Z,0.00
2022-12-09T06:28:54.247Z,4.00
2022-12-09T06:29:54.208Z,4.00
2022-12-09T06:30:54.515Z,4.00
2022-12-09T06:31:54.365Z,0.00
2022-12-09T06:32:54.320Z,4.00
2022-12-09T06:33:56.545Z,4.00
2022-12-09T06:34:54.541Z,4.00
2022-12-09T06:35:54.280Z,4.00
2022-12-09T06:36:54.248Z,8.00
2022-12-09T06:37:54.193Z,4.00
2022-12-09T06:38:54.175Z,8.00
2022-12-09T06:39:54.444Z,8.00
2022-12-09T06:40:54.282Z,8.00
2022-12-09T06:41:54.385Z,8.00
2022-12-09T06:42:54.289Z,12.00
2022-12-09T06:43:53.987Z,12.00
2022-12-09T06:44:53.993Z,12.00
2022-12-09T06:45:54.202Z,16.00
2022-12-09T06:46:54.121Z,16.00
2022-12-09T06:47:54.323Z,20.00
2022-12-09T06:48:54.332Z,20.00
2022-12-09T06:49:54.102Z,24.00
2022-12-09T06:50:53.930Z,24.00
2022-12-09T06:51:54.054Z,28.00
2022-12-09T06:52:55.694Z,32.00
2022-12-09T06:53:54.436Z,36.00
2022-12-09T06:54:53.881Z,36.00
2022-12-09T06:55:54.151Z,44.00
2022-12-09T06:56:53.901Z,48.00
2022-12-09T06:57:54.053Z,52.00
2022-12-09T06:58:54.192Z,56.00
2022-12-09T06:59:53.969Z,60.00
2022-12-09T07:00:53.936Z,64.00
2022-12-09T07:01:54.418Z,72.00
2022-12-09T07:02:54.405Z,76.00
2022-12-09T07:03:54.394Z,88.00
2022-12-09T07:04:54.301Z,96.00
2022-12-09T07:05:54.460Z,108.00
2022-12-09T07:06:54.290Z,120.00
2022-12-09T07:07:53.975Z,124.00
2022-12-09T07:08:54.077Z,132.00
2022-12-09T07:09:54.165Z,140.00
2022-12-09T07:10:56.958Z,144.00
2022-12-09T07:11:53.671Z,148.00
2022-12-09T07:12:53.712Z,156.00
2022-12-09T07:13:54.120Z,156.00
2022-12-09T07:14:54.097Z,160.00
2022-12-09T07:15:53.921Z,160.00
2022-12-09T07:16:53.754Z,164.00
2022-12-09T07:17:54.129Z,172.00
2022-12-09T07:18:53.728Z,176.00
2022-12-09T07:19:53.711Z,184.00
2022-12-09T07:20:53.622Z,188.00
2022-12-09T07:21:53.847Z,196.00
2022-12-09T07:22:53.838Z,200.00
2022-12-09T07:23:53.962Z,200.00
2022-12-09T07:24:53.595Z,204.00
2022-12-09T07:25:53.916Z,204.00
2022-12-09T07:26:53.895Z,212.00
2022-12-09T07:27:53.531Z,216.00
2022-12-09T07:28:53.763Z,224.00
2022-12-09T07:29:53.549Z,232.00
2022-12-09T07:30:53.854Z,240.00
2022-12-09T07:31:53.657Z,248.00
2022-12-09T07:32:53.779Z,252.00
2022-12-09T07:33:53.641Z,248.00
2022-12-09T07:34:53.642Z,252.00
2022-12-09T07:35:53.866Z,272.00
2022-12-09T07:36:53.416Z,284.00
2022-12-09T07:37:53.495Z,300.00
2022-12-09T07:38:53.770Z,324.00
2022-12-09T07:39:53.401Z,348.00
2022-12-09T07:40:53.512Z,376.00
2022-12-09T07:41:53.384Z,404.00
2022-12-09T07:42:58.972Z,424.00
2022-12-09T07:43:54.450Z,460.00
2022-12-09T07:44:53.446Z,464.00
2022-12-09T07:45:53.660Z,508.00
2022-12-09T07:46:53.580Z,612.00
2022-12-09T07:47:53.736Z,704.00
2022-12-09T07:48:53.648Z,784.00
2022-12-09T07:49:53.400Z,772.00
2022-12-09T07:50:53.263Z,740.00
2022-12-09T07:51:53.600Z,780.00
2022-12-09T07:52:53.219Z,852.00
2022-12-09T07:53:53.793Z,876.00
2022-12-09T07:54:53.471Z,880.00
2022-12-09T07:55:53.201Z,904.00
2022-12-09T07:56:53.159Z,868.00
2022-12-09T07:57:53.373Z,832.00
2022-12-09T07:58:53.405Z,796.00
2022-12-09T07:59:53.468Z,756.00
2022-12-09T08:00:53.426Z,732.00
2022-12-09T08:01:53.101Z,712.00
2022-12-09T08:02:53.291Z,700.00
2022-12-09T08:03:53.410Z,704.00
2022-12-09T08:04:53.565Z,716.00
2022-12-09T08:05:53.730Z,740.00
2022-12-09T08:06:53.523Z,760.00
2022-12-09T08:07:53.602Z,768.00
2022-12-09T08:08:53.360Z,792.00
2022-12-09T08:09:53.296Z,792.00
2022-12-09T08:10:53.339Z,832.00
2022-12-09T08:11:53.209Z,880.00
2022-12-09T08:12:53.030Z,884.00
2022-12-09T08:13:53.230Z,872.00
2022-12-09T08:14:52.994Z,860.00
2022-12-09T08:15:52.996Z,864.00
2022-12-09T08:16:53.223Z,872.00
2022-12-09T08:17:53.084Z,880.00
2022-12-09T08:18:53.699Z,884.00
2022-12-09T08:19:53.361Z,908.00
2022-12-09T08:20:52.908Z,920.00
2022-12-09T08:21:54.719Z,936.00
2022-12-09T08:22:53.077Z,920.00
2022-12-09T08:23:53.078Z,896.00
2022-12-09T08:24:53.153Z,880.00
2022-12-09T08:25:52.955Z,868.00
2022-12-09T08:26:52.937Z,872.00
2022-12-09T08:27:52.967Z,876.00
2022-12-09T08:28:53.191Z,864.00
2022-12-09T08:29:54.300Z,892.00
2022-12-09T08:30:52.975Z,880.00
2022-12-09T08:31:53.058Z,904.00
2022-12-09T08:32:53.142Z,904.00
2022-12-09T08:33:53.031Z,916.00
2022-12-09T08:34:53.190Z,932.00
2022-12-09T08:35:52.967Z,932.00
2022-12-09T08:36:57.010Z,952.00
2022-12-09T08:37:54.012Z,960.00
2022-12-09T08:38:53.067Z,968.00
2022-12-09T08:39:52.685Z,984.00
2022-12-09T08:40:52.961Z,1000.00
2022-12-09T08:41:52.979Z,1024.00
2022-12-09T08:42:53.066Z,1044.00
2022-12-09T08:43:53.130Z,1116.00
2022-12-09T08:44:58.598Z,1188.00
2022-12-09T08:45:53.969Z,1236.00
2022-12-09T08:46:52.985Z,1224.00
2022-12-09T08:47:53.259Z,1236.00
2022-12-09T08:48:52.910Z,1236.00
2022-12-09T08:49:52.677Z,1232.00
2022-12-09T08:50:52.921Z,1284.00
2022-12-09T08:51:52.768Z,1324.00
2022-12-09T08:52:52.648Z,1292.00
2022-12-09T08:53:52.930Z,1308.00
2022-12-09T08:54:53.001Z,1348.00
2022-12-09T08:55:52.731Z,1360.00
2022-12-09T08:56:52.973Z,1372.00
2022-12-09T08:57:52.605Z,1336.00
2022-12-09T08:58:52.570Z,1404.00
2022-12-09T08:59:52.560Z,1472.00
2022-12-09T09:00:52.810Z,1440.00
2022-12-09T09:01:52.747Z,1520.00
2022-12-09T09:02:53.039Z,1516.00
2022-12-09T09:03:52.951Z,1548.00
2022-12-09T09:04:52.828Z,1612.00
2022-12-09T09:05:52.732Z,1724.00
2022-12-09T09:06:52.804Z,1588.00
2022-12-09T09:07:52.562Z,1564.00
2022-12-09T09:08:52.397Z,1576.00
2022-12-09T09:09:52.558Z,1576.00
2022-12-09T09:10:52.755Z,1544.00
2022-12-09T09:11:52.663Z,1480.00
2022-12-09T09:12:52.748Z,1492.00
2022-12-09T09:13:52.483Z,1504.00
2022-12-09T09:14:52.301Z,1536.00
2022-12-09T09:15:52.707Z,1584.00
2022-12-09T09:16:52.777Z,1628.00
2022-12-09T09:17:52.562Z,1608.00
2022-12-09T09:18:52.597Z,1604.00
2022-12-09T09:19:52.442Z,1564.00
2022-12-09T09:20:52.380Z,1652.00
2022-12-09T09:21:52.505Z,1732.00
2022-12-09T09:22:55.146Z,1744.00
2022-12-09T09:23:53.383Z,1764.00
2022-12-09T09:24:52.391Z,1816.00
2022-12-09T09:25:52.305Z,1840.00
2022-12-09T09:26:52.504Z,1872.00
2022-12-09T09:27:52.403Z,1888.00
2022-12-09T09:28:52.414Z,1928.00
2022-12-09T09:29:52.337Z,1932.00
2022-12-09T09:30:52.648Z,1932.00
2022-12-09T09:31:52.549Z,1928.00
2022-12-09T09:32:52.190Z,1916.00
2022-12-09T09:33:52.405Z,1916.00
2022-12-09T09:34:52.289Z,1920.00
2022-12-09T09:35:52.433Z,1944.00
2022-12-09T09:36:52.178Z,1948.00
2022-12-09T09:37:52.034Z,1884.00
2022-12-09T09:38:52.337Z,1840.00
2022-12-09T09:39:52.117Z,1872.00
2022-12-09T09:40:52.141Z,1912.00
2022-12-09T09:41:52.076Z,1944.00
2022-12-09T09:42:52.331Z,1996.00
2022-12-09T09:43:52.420Z,2052.00
2022-12-09T09:44:52.161Z,2120.00
2022-12-09T09:45:52.259Z,2124.00
2022-12-09T09:46:52.546Z,2116.00
2022-12-09T09:47:52.113Z,2140.00
2022-12-09T09:48:52.156Z,2144.00
2022-12-09T09:49:51.977Z,2124.00
2022-12-09T09:50:51.925Z,2144.00
2022-12-09T09:51:52.036Z,2172.00
2022-12-09T09:52:51.890Z,2204.00
2022-12-09T09:53:52.019Z,2260.00
2022-12-09T09:54:52.010Z,2220.00
2022-12-09T09:55:51.937Z,2168.00
2022-12-09T09:56:51.913Z,2200.00
2022-12-09T09:57:51.853Z,2184.00
2022-12-09T09:58:52.033Z,2156.00
2022-12-09T09:59:52.290Z,2140.00
2022-12-09T10:00:51.936Z,2124.00
2022-12-09T10:01:52.434Z,2120.00
2022-12-09T10:02:52.435Z,2156.00
2022-12-09T10:03:52.394Z,2156.00
2022-12-09T10:04:52.010Z,2084.00
2022-12-09T10:05:51.862Z,2088.00
2022-12-09T10:06:53.288Z,2080.00
2022-12-09T10:07:52.077Z,2060.00
2022-12-09T10:08:52.230Z,2076.00
2022-12-09T10:09:51.909Z,2072.00
2022-12-09T10:10:51.824Z,2160.00
2022-12-09T10:11:51.947Z,2164.00
2022-12-09T10:12:52.051Z,2304.00
2022-12-09T10:13:51.896Z,2532.00
2022-12-09T10:14:52.204Z,2608.00
2022-12-09T10:15:52.028Z,2732.00
2022-12-09T10:16:51.861Z,2836.00
2022-12-09T10:17:52.253Z,2812.00
2022-12-09T10:18:51.887Z,2636.00
2022-12-09T10:19:51.915Z,2532.00
2022-12-09T10:20:52.096Z,2592.00
2022-12-09T10:21:52.068Z,2680.00
2022-12-09T10:22:51.637Z,2540.00
2022-12-09T10:23:51.968Z,2472.00
2022-12-09T10:24:51.760Z,2664.00
2022-12-09T10:25:51.960Z,2860.00
2022-12-09T10:26:51.508Z,2844.00
2022-12-09T10:27:51.920Z,2744.00
2022-12-09T10:28:51.519Z,2732.00
2022-12-09T10:29:51.617Z,2816.00
2022-12-09T10:30:51.789Z,2856.00
2022-12-09T10:31:51.507Z,2844.00
2022-12-09T10:32:51.671Z,2840.00
2022-12-09T10:33:51.618Z,2904.00
2022-12-09T10:34:51.644Z,2788.00
2022-12-09T10:35:51.509Z,2836.00
2022-12-09T10:36:51.396Z,2968.00
2022-12-09T10:37:51.870Z,3032.00
2022-12-09T10:38:51.673Z,2964.00
2022-12-09T10:39:51.632Z,2892.00
2022-12-09T10:40:51.738Z,2916.00
2022-12-09T10:41:51.328Z,2952.00
2022-12-09T10:42:51.745Z,3032.00
2022-12-09T10:43:51.816Z,3056.00
2022-12-09T10:44:51.316Z,3152.00
2022-12-09T10:46:19.187Z,3184.00
2022-12-09T10:46:52.453Z,3120.00
2022-12-09T10:47:51.561Z,3232.00
2022-12-09T10:48:51.456Z,3272.00
2022-12-09T10:49:51.748Z,3388.00
2022-12-09T10:50:51.625Z,3388.00
2022-12-09T10:51:51.713Z,3980.00
2022-12-09T10:52:51.413Z,3840.00
2022-12-09T10:53:51.668Z,4380.00
2022-12-09T10:54:51.623Z,3548.00
2022-12-09T10:55:52.117Z,3656.00
2022-12-09T10:56:51.380Z,3452.00
2022-12-09T10:57:51.321Z,3180.00
2022-12-09T10:58:51.154Z,3008.00
2022-12-09T10:59:51.483Z,3096.00
2022-12-09T11:00:51.190Z,3172.00
2022-12-09T11:01:51.708Z,3116.00
2022-12-09T11:02:51.464Z,2996.00
2022-12-09T11:03:51.744Z,2964.00
2022-12-09T11:04:51.472Z,2968.00
2022-12-09T11:05:51.421Z,3024.00
2022-12-09T11:06:57.286Z,3020.00
2022-12-09T11:07:52.385Z,2948.00
2022-12-09T11:08:51.552Z,2844.00
2022-12-09T11:09:51.349Z,2820.00
2022-12-09T11:10:51.209Z,2740.00
2022-12-09T11:11:51.240Z,2796.00
2022-12-09T11:12:51.336Z,2788.00
2022-12-09T11:13:51.260Z,2840.00
2022-12-09T11:14:51.132Z,2940.00
2022-12-09T11:15:51.301Z,2920.00
2022-12-09T11:16:51.310Z,3092.00
2022-12-09T11:17:55.506Z,3200.00
2022-12-09T11:18:52.220Z,3016.00
2022-12-09T11:19:51.459Z,3008.00
2022-12-09T11:20:50.977Z,2996.00
2022-12-09T11:21:50.995Z,3044.00
2022-12-09T11:22:51.217Z,2868.00
2022-12-09T11:23:54.073Z,2820.00
2022-12-09T11:24:52.087Z,2844.00
2022-12-09T11:25:51.104Z,2884.00
2022-12-09T11:26:51.019Z,2900.00
2022-12-09T11:27:50.958Z,2904.00
2022-12-09T11:28:51.205Z,2872.00
2022-12-09T11:29:50.838Z,2816.00
2022-12-09T11:31:19.839Z,2760.00
2022-12-09T11:31:52.270Z,2708.00
2022-12-09T11:32:51.199Z,2680.00
2022-12-09T11:33:51.148Z,2652.00
2022-12-09T11:34:51.031Z,2624.00
2022-12-09T11:35:51.081Z,2612.00
2022-12-09T11:36:50.723Z,2648.00
2022-12-09T11:37:50.704Z,2696.00
2022-12-09T11:38:50.704Z,2756.00
2022-12-09T11:39:50.690Z,2812.00
2022-12-09T11:40:50.689Z,2824.00
2022-12-09T11:41:50.637Z,2784.00
2022-12-09T11:42:50.633Z,2756.00
2022-12-09T11:43:50.616Z,2784.00
2022-12-09T11:44:50.629Z,2896.00
2022-12-09T11:45:50.614Z,3048.00
2022-12-09T11:46:50.679Z,3216.00
2022-12-09T11:48:24.224Z,3280.00
2022-12-09T11:48:51.564Z,3144.00
2022-12-09T11:49:50.644Z,2908.00
2022-12-09T11:50:50.548Z,2764.00
2022-12-09T11:51:50.547Z,2756.00
2022-12-09T11:52:50.541Z,2868.00
2022-12-09T11:53:50.508Z,2892.00
2022-12-09T11:54:50.539Z,2848.00
2022-12-09T11:55:50.481Z,2780.00
2022-12-09T11:56:50.489Z,2592.00
2022-12-09T11:57:50.487Z,2484.00
2022-12-09T11:58:50.457Z,2432.00
2022-12-09T11:59:50.464Z,2416.00
2022-12-09T12:00:50.432Z,2448.00
2022-12-09T12:01:50.464Z,2552.00
2022-12-09T12:02:50.524Z,2668.00
2022-12-09T12:03:50.429Z,2512.00
2022-12-09T12:04:50.446Z,2284.00
2022-12-09T12:05:50.378Z,2168.00
2022-12-09T12:06:50.365Z,2184.00
2022-12-09T12:07:50.402Z,2096.00
2022-12-09T12:08:50.474Z,2036.00
2022-12-09T12:09:50.332Z,2056.00
2022-12-09T12:10:50.342Z,1928.00
2022-12-09T12:11:50.309Z,1848.00
2022-12-09T12:12:50.299Z,1768.00
2022-12-09T12:13:50.318Z,1792.00
2022-12-09T12:14:50.275Z,1904.00
2022-12-09T12:15:50.259Z,2012.00
2022-12-09T12:16:50.255Z,2060.00
2022-12-09T12:17:50.337Z,2152.00
2022-12-09T12:18:50.267Z,2108.00
2022-12-09T12:19:50.227Z,2004.00
2022-12-09T12:20:50.216Z,1960.00
2022-12-09T12:21:50.192Z,1888.00
2022-12-09T12:22:54.437Z,1828.00
2022-12-09T12:23:50.181Z,1844.00
2022-12-09T12:24:50.187Z,1872.00
2022-12-09T12:25:50.146Z,1816.00
2022-12-09T12:26:50.218Z,1760.00
2022-12-09T12:27:50.128Z,1708.00
2022-12-09T12:28:56.654Z,1748.00
2022-12-09T12:29:51.110Z,1824.00
2022-12-09T12:30:50.119Z,1908.00
2022-12-09T12:31:50.126Z,2048.00
2022-12-09T12:33:11.792Z,2192.00
2022-12-09T12:34:16.258Z,2192.00
2022-12-09T12:34:51.051Z,2168.00
2022-12-09T12:35:50.039Z,2160.00
2022-12-09T12:36:50.049Z,2092.00
2022-12-09T12:37:50.015Z,2088.00
2022-12-09T12:38:50.028Z,2024.00
2022-12-09T12:39:49.993Z,1868.00
2022-12-09T12:40:49.989Z,1820.00
2022-12-09T12:41:49.992Z,1824.00
2022-12-09T12:42:50.111Z,1792.00
2022-12-09T12:43:49.946Z,1816.00
2022-12-09T12:44:49.949Z,1852.00
2022-12-09T12:45:54.684Z,2000.00
2022-12-09T12:46:50.942Z,2056.00